Aérodrome :
LOGIN :

S'inscrire | Disclaimer

   EN    FR    IT 

 










Légende :    VFR   VFR Marginal   IFR   IFR Intensif   IFR Très Intensif
Visi : 
Plafond : 
>= 8 km
>= 3000ft
5 à 8 km
1000 à 3000 ft
1500m à 5 km
500 à 1000 ft
800 à 1500m
200 à 500 ft
< 800m
< 200 ft
Symboles :   Orages  Brouillard  Fortes neiges  Fortes précipitations  Vent > 20 kt
SIGMETs :   Divers  Orages  Givrage  Turbulence  Onde Orograph.  Cendres Volcan.






- Altitude de l'aérodrome : 1367 ft
- Code IATA : FDH


EDNY - Friedrichshafen

DERNIER METAR :
  • 291150Z 25006KT 180V300 9999 SCT022 10/04 Q1013

METARs EXPIRÉS :
  • 291120Z VRB03KT 9999 SCT025 09/04 Q1014
  • 291050Z VRB02KT 9999 BKN026 08/05 Q1014
  • 291020Z VRB02KT 9999 BKN026 08/05 Q1015
  • 290950Z VRB02KT 9999 BKN025 07/04 Q1015
  • 290920Z 03003KT 360V080 9999 OVC025 06/04 Q1015
  • 290850Z 04005KT 9999 FEW011 OVC027 05/03 Q1016
  • 290820Z 05005KT 9999 SCT018 OVC028 05/03 Q1016
  • 290750Z 04005KT 9000 FEW014 SCT018 OVC029 05/03 Q1017
  • 290720Z 04005KT 8000 FEW014 OVC030 05/03 Q1017

TAF TAF EDNY
Valide du 29 à 12h jusqu'au 01 à 12h UTC


291100Z 2912/0112 25007KT 9999 BKN025
BECMG 2916/2919 VRB02KT
TEMPO 2922/0108 2000 BR
PROB30
TEMPO 0101/0107 0500 FG
BECMG 0108/0111 26005KT
PROB30
TEMPO 0109/0112 BKN012



MET'MAP, la Météo Aéronautique d'un coup d'oeil ! - Copyright ORBIFLY Décembre 2007 - Disclaimer

ORBIFLY MET'MAP TEAM :

Programmation & Développement : Alexandra Zaïnal
Sur une idée originale de : Baudouin d'Aumeries
Soutien technique & logistique : Manuel Goepfert
Assistance : Marc-Olivier Méhu




SOURCES & CREDITS :

   NOAA